createdAt,value
2023-10-03T00:02:34.212Z,7.90
2023-10-03T00:05:36.750Z,8.52
2023-10-03T00:08:39.721Z,9.15
2023-10-03T00:11:42.051Z,8.55
2023-10-03T00:14:43.693Z,8.27
2023-10-03T00:17:46.209Z,7.72
2023-10-03T00:20:48.659Z,7.47
2023-10-03T00:23:50.806Z,6.80
2023-10-03T00:26:55.155Z,6.90
2023-10-03T00:29:56.966Z,7.25
2023-10-03T00:32:59.395Z,8.20
2023-10-03T00:36:01.485Z,9.27
2023-10-03T00:39:07.316Z,8.25
2023-10-03T00:42:10.385Z,8.77
2023-10-03T00:45:12.497Z,8.68
2023-10-03T00:48:14.634Z,8.73
2023-10-03T00:51:17.751Z,8.40
2023-10-03T00:54:20.044Z,7.95
2023-10-03T00:57:23.649Z,7.25
2023-10-03T01:00:26.478Z,8.90
2023-10-03T01:03:33.402Z,7.95
2023-10-03T01:06:35.506Z,8.40
2023-10-03T01:09:37.127Z,6.57
2023-10-03T01:12:38.739Z,6.22
2023-10-03T01:15:41.111Z,7.13
2023-10-03T01:18:44.198Z,8.02
2023-10-03T01:21:48.848Z,6.95
2023-10-03T01:24:51.695Z,8.07
2023-10-03T01:27:53.391Z,8.60
2023-10-03T01:30:55.364Z,7.68
2023-10-03T01:33:56.993Z,6.95
2023-10-03T01:36:59.460Z,7.18
2023-10-03T01:40:01.095Z,7.53
2023-10-03T01:43:03.173Z,7.72
2023-10-03T01:46:05.506Z,7.80
2023-10-03T01:49:07.689Z,7.32
2023-10-03T01:52:09.664Z,7.10
2023-10-03T01:55:13.543Z,7.70
2023-10-03T01:58:15.429Z,7.78
2023-10-03T02:01:17.174Z,7.72
2023-10-03T02:04:19.206Z,7.97
2023-10-03T02:07:21.963Z,7.97
2023-10-03T02:10:24.063Z,7.78
2023-10-03T02:13:26.177Z,8.32
2023-10-03T02:16:29.783Z,8.02
2023-10-03T02:19:31.755Z,7.70
2023-10-03T02:22:33.515Z,8.65
2023-10-03T02:25:38.431Z,8.65
2023-10-03T02:28:42.023Z,8.82
2023-10-03T02:31:47.611Z,8.77
2023-10-03T02:34:50.106Z,8.07
2023-10-03T02:37:53.703Z,8.32
2023-10-03T02:41:03.056Z,8.43
2023-10-03T02:44:08.492Z,8.32
2023-10-03T02:47:11.323Z,7.97
2023-10-03T02:50:14.789Z,7.70
2023-10-03T02:53:20.801Z,8.00
2023-10-03T02:56:23.921Z,8.45
2023-10-03T02:59:25.681Z,8.13
2023-10-03T03:02:27.727Z,8.23
2023-10-03T03:05:36.581Z,6.78
2023-10-03T03:08:41.543Z,7.72
2023-10-03T03:11:49.963Z,7.65
2023-10-03T03:14:53.748Z,8.05
2023-10-03T03:17:55.474Z,8.60
2023-10-03T03:21:00.524Z,7.88
2023-10-03T03:24:09.835Z,7.75
2023-10-03T03:27:13.295Z,8.40
2023-10-03T03:30:30.199Z,8.50
2023-10-03T03:33:32.607Z,9.63
2023-10-03T03:36:39.271Z,10.15
2023-10-03T03:39:53.097Z,8.98
2023-10-03T03:42:54.702Z,8.60
2023-10-03T03:45:56.410Z,8.65
2023-10-03T03:49:00.010Z,8.40
2023-10-03T03:52:01.833Z,8.63
2023-10-03T03:55:05.208Z,7.85
2023-10-03T03:58:12.437Z,8.68
2023-10-03T04:01:24.393Z,8.32
2023-10-03T04:04:26.373Z,7.78
2023-10-03T04:07:28.229Z,8.30
2023-10-03T04:10:29.856Z,8.02
2023-10-03T04:13:31.640Z,8.35
2023-10-03T04:16:39.747Z,8.13
2023-10-03T04:19:41.467Z,8.23
2023-10-03T04:22:43.326Z,8.48
2023-10-03T04:25:45.862Z,8.80
2023-10-03T04:28:47.843Z,9.02
2023-10-03T04:31:49.677Z,7.90
2023-10-03T04:34:51.402Z,8.38
2023-10-03T04:37:53.572Z,8.43
2023-10-03T04:40:56.016Z,9.40
2023-10-03T04:43:57.629Z,9.05
2023-10-03T04:46:59.710Z,8.05
2023-10-03T04:50:02.744Z,8.55
2023-10-03T04:53:07.046Z,8.07
2023-10-03T04:56:08.868Z,8.23
2023-10-03T04:59:10.559Z,8.02
2023-10-03T05:02:12.244Z,7.45
2023-10-03T05:05:19.926Z,7.57
2023-10-03T05:08:21.991Z,8.75
2023-10-03T05:11:24.009Z,7.78
2023-10-03T05:14:26.127Z,8.07
2023-10-03T05:17:28.317Z,9.25
2023-10-03T05:20:39.637Z,8.20
2023-10-03T05:23:42.747Z,7.93
2023-10-03T05:26:44.462Z,8.07
2023-10-03T05:29:46.504Z,7.90
2023-10-03T05:32:48.287Z,8.10
2023-10-03T05:35:50.166Z,8.77
2023-10-03T05:38:51.833Z,8.32
2023-10-03T05:41:57.517Z,8.85
2023-10-03T05:44:59.274Z,8.25
2023-10-03T05:48:01.246Z,7.88
2023-10-03T05:51:03.192Z,8.33
2023-10-03T05:54:07.995Z,7.47
2023-10-03T05:57:10.154Z,8.65
2023-10-03T06:00:17.994Z,9.48
2023-10-03T06:03:34.261Z,8.82
2023-10-03T06:06:36.670Z,8.68
2023-10-03T06:09:39.113Z,9.27
2023-10-03T06:12:43.339Z,8.55
2023-10-03T06:15:47.639Z,9.35
2023-10-03T06:18:49.591Z,8.82
2023-10-03T06:21:51.307Z,9.27
2023-10-03T06:24:58.184Z,9.10
2023-10-03T06:28:00.001Z,8.77
2023-10-03T06:31:01.875Z,9.40
2023-10-03T06:34:04.111Z,9.52
2023-10-03T06:37:06.168Z,9.67
2023-10-03T06:40:08.792Z,9.27
2023-10-03T06:43:10.583Z,9.70
2023-10-03T06:46:12.210Z,9.48
2023-10-03T06:49:15.261Z,10.07
2023-10-03T06:52:16.911Z,10.43
2023-10-03T06:55:18.572Z,9.23
2023-10-03T06:58:20.195Z,9.45
2023-10-03T07:01:21.833Z,9.98
2023-10-03T07:04:23.755Z,9.35
2023-10-03T07:07:25.955Z,9.18
2023-10-03T07:10:28.315Z,9.43
2023-10-03T07:13:30.325Z,9.52
2023-10-03T07:16:38.863Z,8.93
2023-10-03T07:19:40.850Z,8.52
2023-10-03T07:22:42.637Z,9.05
2023-10-03T07:25:44.275Z,9.07
2023-10-03T07:28:45.928Z,9.45
2023-10-03T07:31:48.197Z,8.82
2023-10-03T07:34:50.116Z,9.40
2023-10-03T07:37:52.991Z,8.98
2023-10-03T07:43:56.586Z,8.95
2023-10-03T07:46:58.194Z,8.85
2023-10-03T07:50:01.692Z,8.68
2023-10-03T07:53:05.147Z,8.57
2023-10-03T07:56:26.386Z,8.77
2023-10-03T07:59:28.294Z,8.25
2023-10-03T08:02:33.716Z,8.55
2023-10-03T08:05:35.635Z,8.48
2023-10-03T08:08:37.668Z,8.88
2023-10-03T08:11:39.449Z,8.95
2023-10-03T08:14:43.204Z,9.13
2023-10-03T08:17:46.787Z,8.38
2023-10-03T08:20:55.464Z,8.02
2023-10-03T08:23:58.671Z,7.88
2023-10-03T08:30:04.713Z,7.18
2023-10-03T08:33:06.732Z,7.68
2023-10-03T08:36:16.029Z,7.20
2023-10-03T08:39:18.758Z,7.13
2023-10-03T08:42:37.062Z,7.80
2023-10-03T08:45:44.184Z,6.80
2023-10-03T08:48:47.567Z,7.05
2023-10-03T08:51:49.581Z,6.30
2023-10-03T08:54:56.172Z,6.45
2023-10-03T08:58:01.362Z,6.70
2023-10-03T09:01:03.744Z,6.63
2023-10-03T09:04:16.914Z,5.97
2023-10-03T09:10:24.909Z,5.78
2023-10-03T09:13:29.522Z,6.55
2023-10-03T09:16:31.411Z,7.40
2023-10-03T09:19:44.048Z,6.15
2023-10-03T09:22:48.173Z,6.57
2023-10-03T09:25:57.053Z,6.00
2023-10-03T09:29:00.018Z,6.07
2023-10-03T09:32:15.491Z,6.50
2023-10-03T09:35:17.894Z,6.18
2023-10-03T09:38:26.286Z,5.68
2023-10-03T09:41:30.729Z,5.50
2023-10-03T09:44:32.608Z,5.70
2023-10-03T09:47:39.271Z,5.60
2023-10-03T09:50:52.446Z,5.70
2023-10-03T09:53:58.059Z,5.68
2023-10-03T09:57:02.049Z,5.75
2023-10-03T10:00:23.876Z,5.68
2023-10-03T10:03:37.641Z,5.72
2023-10-03T10:06:48.739Z,5.38
2023-10-03T10:10:02.305Z,5.82
2023-10-03T10:13:14.955Z,5.50
2023-10-03T10:16:21.884Z,6.53
2023-10-03T10:19:26.173Z,5.63
2023-10-03T10:23:00.230Z,5.95
2023-10-03T10:26:27.892Z,5.57
2023-10-03T10:29:35.169Z,5.13
2023-10-03T10:32:37.850Z,6.75
2023-10-03T10:36:04.396Z,6.70
2023-10-03T10:39:06.163Z,6.80
2023-10-03T10:42:11.750Z,6.07
2023-10-03T10:45:23.006Z,5.28
2023-10-03T10:48:40.602Z,5.28
2023-10-03T10:51:55.527Z,5.93
2023-10-03T10:54:57.865Z,5.00
2023-10-03T10:58:14.198Z,5.07
2023-10-03T11:01:17.216Z,5.20
2023-10-03T11:04:27.034Z,4.50
2023-10-03T11:07:30.280Z,5.32
2023-10-03T11:10:35.770Z,5.15
2023-10-03T11:13:46.977Z,4.70
2023-10-03T11:16:48.696Z,4.53
2023-10-03T11:19:56.637Z,4.60
2023-10-03T11:22:58.306Z,4.38
2023-10-03T11:26:01.222Z,4.47
2023-10-03T11:29:03.129Z,4.15
2023-10-03T11:32:06.775Z,4.63
2023-10-03T11:35:19.320Z,4.63
2023-10-03T11:38:21.076Z,4.95
2023-10-03T11:41:33.268Z,4.20
2023-10-03T11:44:35.118Z,4.10
2023-10-03T11:47:36.952Z,4.68
2023-10-03T11:50:39.839Z,4.57
2023-10-03T11:56:47.857Z,4.05
2023-10-03T11:59:49.551Z,4.30
2023-10-03T12:02:52.263Z,4.10
2023-10-03T12:08:59.669Z,4.13
2023-10-03T12:12:01.948Z,4.05
2023-10-03T12:15:04.560Z,4.40
2023-10-03T12:18:06.458Z,4.40
2023-10-03T12:21:08.124Z,4.67
2023-10-03T12:24:09.859Z,5.10
2023-10-03T12:27:11.946Z,4.80
2023-10-03T12:30:16.520Z,5.00
2023-10-03T12:33:20.207Z,5.22
2023-10-03T12:36:22.449Z,4.75
2023-10-03T12:39:26.133Z,4.47
2023-10-03T12:42:30.026Z,4.70
2023-10-03T12:45:31.717Z,4.47
2023-10-03T12:48:33.839Z,4.40
2023-10-03T12:51:35.565Z,3.28
2023-10-03T12:54:37.243Z,2.40
2023-10-03T12:57:38.908Z,2.63
2023-10-03T13:00:43.093Z,2.50
2023-10-03T13:03:48.124Z,2.25
2023-10-03T13:06:51.378Z,2.03
2023-10-03T13:12:56.347Z,2.45
2023-10-03T13:15:58.671Z,2.50
2023-10-03T13:19:02.385Z,2.07
2023-10-03T13:22:04.970Z,2.25
2023-10-03T13:25:08.872Z,2.15
2023-10-03T13:28:13.200Z,2.10
2023-10-03T13:31:14.910Z,1.98
2023-10-03T13:34:17.638Z,1.88
2023-10-03T13:37:20.012Z,2.00
2023-10-03T13:40:23.052Z,2.00
2023-10-03T13:43:28.777Z,1.92
2023-10-03T13:46:33.325Z,2.03
2023-10-03T13:49:35.018Z,1.90
2023-10-03T13:52:38.607Z,2.20
2023-10-03T13:55:40.366Z,2.10
2023-10-03T13:58:41.996Z,2.40
2023-10-03T14:01:43.729Z,2.60
2023-10-03T14:04:45.929Z,2.22
2023-10-03T14:10:50.497Z,2.78
2023-10-03T14:13:54.175Z,2.87
2023-10-03T14:17:01.300Z,2.70
2023-10-03T14:20:03.143Z,2.65
2023-10-03T14:23:04.737Z,3.05
2023-10-03T14:26:07.079Z,3.28
2023-10-03T14:29:09.030Z,2.67
2023-10-03T14:32:12.015Z,2.10
2023-10-03T14:35:14.184Z,1.70
2023-10-03T14:38:16.777Z,1.42
2023-10-03T14:41:20.292Z,1.50
2023-10-03T14:44:21.975Z,1.20
2023-10-03T14:47:23.656Z,1.50
2023-10-03T14:50:25.342Z,1.50
2023-10-03T14:53:28.483Z,1.50
2023-10-03T14:56:30.180Z,1.58
2023-10-03T14:59:32.096Z,2.20
2023-10-03T15:02:33.793Z,1.90
2023-10-03T15:05:35.661Z,2.25
2023-10-03T15:08:37.586Z,2.17
2023-10-03T15:11:39.247Z,1.83
2023-10-03T15:14:41.886Z,2.28
2023-10-03T15:17:43.957Z,1.95
2023-10-03T15:20:46.384Z,2.15
2023-10-03T15:23:48.086Z,2.50
2023-10-03T15:26:49.832Z,2.30
2023-10-03T15:29:52.035Z,1.97
2023-10-03T15:32:53.943Z,1.63
2023-10-03T15:35:56.946Z,1.50
2023-10-03T15:38:59.220Z,1.60
2023-10-03T15:42:01.139Z,1.50
2023-10-03T15:48:10.457Z,1.38
2023-10-03T15:51:15.691Z,1.50
2023-10-03T15:54:18.133Z,1.50
2023-10-03T15:57:20.233Z,1.60
2023-10-03T16:00:22.140Z,1.57
2023-10-03T16:03:24.246Z,2.00
2023-10-03T16:06:26.149Z,1.83
2023-10-03T16:09:27.902Z,1.77
2023-10-03T16:12:32.103Z,1.65
2023-10-03T16:15:34.362Z,1.83
2023-10-03T16:18:37.455Z,1.77
2023-10-03T16:21:42.796Z,1.85
2023-10-03T16:24:45.226Z,1.73
2023-10-03T16:27:47.784Z,1.45
2023-10-03T16:30:49.712Z,1.60
2023-10-03T16:33:51.721Z,1.80
2023-10-03T16:36:53.457Z,1.70
2023-10-03T16:39:55.394Z,1.58
2023-10-03T16:42:57.784Z,1.60
2023-10-03T16:46:04.321Z,1.67
2023-10-03T16:49:07.542Z,1.45
2023-10-03T16:52:09.226Z,1.40
2023-10-03T16:55:11.916Z,1.50
2023-10-03T16:58:13.709Z,1.98
2023-10-03T17:01:15.381Z,1.65
2023-10-03T17:04:17.866Z,1.60
2023-10-03T17:07:19.640Z,1.45
2023-10-03T17:10:21.876Z,1.52
2023-10-03T17:13:23.512Z,1.40
2023-10-03T17:16:25.269Z,1.50
2023-10-03T17:19:26.940Z,1.20
2023-10-03T17:22:28.813Z,1.23
2023-10-03T17:25:32.139Z,1.10
2023-10-03T17:28:33.820Z,1.50
2023-10-03T17:31:36.356Z,1.02
2023-10-03T17:34:38.065Z,1.00
2023-10-03T17:37:40.870Z,1.00
2023-10-03T17:40:42.604Z,1.10
2023-10-03T17:43:45.321Z,1.02
2023-10-03T17:46:47.056Z,1.30
2023-10-03T17:49:50.723Z,0.98
2023-10-03T17:52:53.934Z,1.30
2023-10-03T17:55:56.767Z,1.08
2023-10-03T18:02:03.424Z,1.00
2023-10-03T18:05:07.010Z,1.35
2023-10-03T18:08:09.361Z,1.48
2023-10-03T18:11:10.996Z,1.10
2023-10-03T18:14:13.586Z,1.17
2023-10-03T18:17:15.291Z,0.98
2023-10-03T18:20:17.023Z,1.25
2023-10-03T18:23:23.171Z,1.15
2023-10-03T18:26:24.855Z,1.00
2023-10-03T18:29:26.667Z,1.13
2023-10-03T18:32:28.533Z,1.10
2023-10-03T18:35:30.530Z,1.00
2023-10-03T18:38:33.977Z,1.20
2023-10-03T18:41:35.735Z,1.25
2023-10-03T18:44:37.395Z,1.50
2023-10-03T18:47:41.248Z,1.05
2023-10-03T18:50:43.750Z,1.30
2023-10-03T18:53:47.883Z,1.10
2023-10-03T18:56:50.083Z,1.20
2023-10-03T18:59:51.818Z,1.30
2023-10-03T19:02:53.579Z,1.10
2023-10-03T19:05:55.582Z,1.20
2023-10-03T19:08:57.658Z,1.42
2023-10-03T19:11:59.571Z,1.48
2023-10-03T19:15:01.985Z,1.20
2023-10-03T19:18:04.283Z,1.30
2023-10-03T19:21:06.758Z,1.27
2023-10-03T19:24:08.734Z,1.50
2023-10-03T19:27:10.786Z,1.45
2023-10-03T19:30:15.922Z,1.73
2023-10-03T19:33:19.978Z,1.70
2023-10-03T19:36:21.862Z,1.38
2023-10-03T19:39:24.258Z,1.65
2023-10-03T19:42:26.610Z,1.60
2023-10-03T19:45:29.364Z,1.40
2023-10-03T19:48:32.457Z,1.45
2023-10-03T19:51:34.278Z,1.40
2023-10-03T19:54:35.976Z,1.60
2023-10-03T19:57:39.888Z,1.58
2023-10-03T20:00:41.763Z,1.60
2023-10-03T20:03:45.708Z,1.45
2023-10-03T20:06:50.313Z,1.63
2023-10-03T20:09:52.336Z,1.58
2023-10-03T20:12:54.048Z,1.70
2023-10-03T20:15:55.643Z,1.63
2023-10-03T20:18:57.518Z,1.60
2023-10-03T20:22:00.593Z,1.90
2023-10-03T20:31:09.371Z,1.90
2023-10-03T20:34:10.976Z,1.63
2023-10-03T20:37:14.480Z,1.58
2023-10-03T20:40:17.084Z,1.80
2023-10-03T20:43:19.840Z,1.50
2023-10-03T20:46:22.052Z,1.70
2023-10-03T20:49:23.727Z,1.70
2023-10-03T20:52:26.383Z,1.83
2023-10-03T20:55:29.277Z,1.73
2023-10-03T20:58:31.007Z,1.60
2023-10-03T21:01:32.787Z,1.88
2023-10-03T21:04:35.432Z,1.60
2023-10-03T21:07:38.559Z,1.30
2023-10-03T21:10:41.901Z,1.77
2023-10-03T21:13:44.237Z,1.80
2023-10-03T21:16:45.841Z,2.13
2023-10-03T21:19:47.499Z,1.90
2023-10-03T21:22:49.870Z,1.77
2023-10-03T21:25:52.051Z,2.20
2023-10-03T21:28:54.950Z,2.00
2023-10-03T21:31:56.615Z,2.67
2023-10-03T21:34:58.876Z,2.55
2023-10-03T21:38:00.602Z,2.67
2023-10-03T21:41:02.312Z,1.70
2023-10-03T21:44:04.136Z,2.50
2023-10-03T21:47:06.121Z,1.88
2023-10-03T21:50:08.635Z,2.00
2023-10-03T21:53:13.775Z,2.03
2023-10-03T21:56:15.564Z,2.10
2023-10-03T21:59:17.281Z,2.22
2023-10-03T22:02:19.771Z,2.33
2023-10-03T22:05:22.753Z,2.00
2023-10-03T22:08:25.325Z,2.72
2023-10-03T22:11:27.188Z,2.40
2023-10-03T22:14:29.290Z,2.70
2023-10-03T22:17:31.186Z,2.33
2023-10-03T22:20:33.447Z,2.20
2023-10-03T22:23:35.234Z,2.63
2023-10-03T22:26:38.063Z,2.45
2023-10-03T22:29:39.898Z,2.65
2023-10-03T22:32:42.099Z,2.70
2023-10-03T22:35:44.049Z,2.25
2023-10-03T22:38:47.461Z,2.08
2023-10-03T22:41:49.169Z,2.10
2023-10-03T22:44:50.820Z,2.10
2023-10-03T22:47:52.496Z,2.80
2023-10-03T22:50:54.731Z,1.90
2023-10-03T22:53:56.500Z,1.92
2023-10-03T22:56:59.066Z,2.30
2023-10-03T23:00:01.294Z,1.88
2023-10-03T23:03:03.924Z,1.90
2023-10-03T23:06:05.802Z,2.05
2023-10-03T23:09:07.617Z,2.95
2023-10-03T23:12:12.034Z,2.05
2023-10-03T23:15:15.475Z,2.55
2023-10-03T23:18:17.802Z,2.28
2023-10-03T23:21:19.657Z,2.35
2023-10-03T23:24:21.397Z,2.78
2023-10-03T23:27:24.834Z,3.45
2023-10-03T23:33:28.325Z,2.42
2023-10-03T23:36:30.611Z,2.70
2023-10-03T23:39:32.332Z,2.63
2023-10-03T23:42:34.800Z,2.53
2023-10-03T23:45:37.793Z,2.40
2023-10-03T23:48:41.035Z,2.20
2023-10-03T23:54:44.638Z,2.10
2023-10-03T23:57:49.795Z,2.00
